Time;durP1;ratioP1;P1;durP2;ratioP2;P2;SDS_P1;SDS_P2;PMS_P1;PMS_P2;Temp;Humidity;BMP_temperature;BMP_pressure;BME280_temperature;BME280_humidity;BME280_pressure;Samples;Min_cycle;Max_cycle;Signal;HPM_P1;HPM_P2
2023/02/18 00:00:00;;;;;;;0.8;0.8;;;;;;;11.2;100.0;102030;;;;
2023/02/18 00:01:01;;;;;;;0.8;0.8;;;;;;;11.3;100.0;102020;;;;
2023/02/18 00:02:00;;;;;;;0.8;0.8;;;;;;;11.3;100.0;102020;;;;
2023/02/18 00:03:00;;;;;;;0.8;0.8;;;;;;;11.3;100.0;102020;;;;
2023/02/18 00:04:00;;;;;;;0.8;0.8;;;;;;;11.3;100.0;102020;;;;
2023/02/18 00:05:00;;;;;;;0.8;0.8;;;;;;;11.2;100.0;102010;;;;
2023/02/18 00:06:00;;;;;;;0.8;0.8;;;;;;;11.2;100.0;102010;;;;
2023/02/18 00:07:00;;;;;;;0.8;0.8;;;;;;;11.1;100.0;102010;;;;
2023/02/18 00:08:00;;;;;;;0.8;0.8;;;;;;;11.1;100.0;102010;;;;
2023/02/18 00:09:01;;;;;;;0.8;0.8;;;;;;;11.1;100.0;102000;;;;
2023/02/18 00:10:00;;;;;;;0.8;0.8;;;;;;;11.1;100.0;102000;;;;
2023/02/18 00:11:00;;;;;;;0.8;0.8;;;;;;;11.1;100.0;102000;;;;
2023/02/18 00:12:00;;;;;;;0.8;0.8;;;;;;;11.1;100.0;102000;;;;
2023/02/18 00:13:00;;;;;;;0.8;0.8;;;;;;;11.2;100.0;102000;;;;
2023/02/18 00:14:01;;;;;;;0.8;0.8;;;;;;;11.2;100.0;102000;;;;
2023/02/18 00:15:00;;;;;;;0.8;0.8;;;;;;;11.2;100.0;102000;;;;
2023/02/18 00:16:01;;;;;;;1.2;1.2;;;;;;;11.2;100.0;102000;;;;
2023/02/18 00:17:00;;;;;;;1.2;1.2;;;;;;;11.1;100.0;102000;;;;
2023/02/18 00:18:00;;;;;;;1.2;1.2;;;;;;;11.1;100.0;102000;;;;
2023/02/18 00:19:02;;;;;;;1.2;1.2;;;;;;;11.1;100.0;102000;;;;
2023/02/18 00:20:00;;;;;;;1.2;1.2;;;;;;;11.1;100.0;102000;;;;
2023/02/18 00:21:02;;;;;;;1.2;1.2;;;;;;;11.1;100.0;102000;;;;
2023/02/18 00:22:00;;;;;;;1.2;1.2;;;;;;;11.1;100.0;102000;;;;
2023/02/18 00:23:01;;;;;;;1.2;1.2;;;;;;;11.1;100.0;101990;;;;
2023/02/18 00:24:01;;;;;;;1.2;1.2;;;;;;;11.1;100.0;101990;;;;
2023/02/18 00:25:00;;;;;;;1.2;1.2;;;;;;;11.2;100.0;102000;;;;
2023/02/18 00:26:01;;;;;;;1.2;1.2;;;;;;;11.2;100.0;102000;;;;
2023/02/18 00:27:00;;;;;;;1.2;1.2;;;;;;;11.2;100.0;101990;;;;
2023/02/18 00:28:00;;;;;;;1.2;1.2;;;;;;;11.2;100.0;101990;;;;
2023/02/18 00:29:00;;;;;;;1.2;1.2;;;;;;;11.2;100.0;101990;;;;
2023/02/18 00:30:02;;;;;;;1.2;1.2;;;;;;;11.2;100.0;101990;;;;
2023/02/18 00:31:05;;;;;;;1.2;1.2;;;;;;;11.2;100.0;101990;;;;
2023/02/18 00:32:00;;;;;;;1.2;1.2;;;;;;;11.2;100.0;101990;;;;
2023/02/18 00:33:00;;;;;;;1.2;1.2;;;;;;;11.2;100.0;101980;;;;
2023/02/18 00:34:01;;;;;;;1.2;1.2;;;;;;;11.2;100.0;101980;;;;
2023/02/18 00:35:00;;;;;;;1.2;1.2;;;;;;;11.2;100.0;101980;;;;
2023/02/18 00:36:01;;;;;;;0.9;0.9;;;;;;;11.2;100.0;101980;;;;
2023/02/18 00:37:00;;;;;;;0.9;0.9;;;;;;;11.2;100.0;101980;;;;
2023/02/18 00:38:00;;;;;;;0.9;0.9;;;;;;;11.2;100.0;101980;;;;
2023/02/18 00:39:02;;;;;;;0.9;0.9;;;;;;;11.2;100.0;101970;;;;
2023/02/18 00:40:00;;;;;;;0.9;0.9;;;;;;;11.2;100.0;101970;;;;
2023/02/18 00:41:00;;;;;;;0.9;0.9;;;;;;;11.2;100.0;101970;;;;
2023/02/18 00:42:00;;;;;;;0.9;0.9;;;;;;;11.2;100.0;101970;;;;
2023/02/18 00:43:00;;;;;;;0.9;0.9;;;;;;;11.2;100.0;101970;;;;
2023/02/18 00:44:00;;;;;;;0.9;0.9;;;;;;;11.2;100.0;101970;;;;
2023/02/18 00:45:00;;;;;;;0.9;0.9;;;;;;;11.2;100.0;101970;;;;
2023/02/18 00:46:01;;;;;;;0.9;0.9;;;;;;;11.2;100.0;101970;;;;
2023/02/18 00:47:00;;;;;;;0.9;0.9;;;;;;;11.3;100.0;101960;;;;
2023/02/18 00:48:00;;;;;;;0.9;0.9;;;;;;;11.3;100.0;101960;;;;
2023/02/18 00:49:00;;;;;;;0.9;0.9;;;;;;;11.2;100.0;101960;;;;
2023/02/18 00:50:00;;;;;;;0.9;0.9;;;;;;;11.2;100.0;101960;;;;
2023/02/18 00:51:01;;;;;;;0.9;0.9;;;;;;;11.1;100.0;101950;;;;
2023/02/18 00:52:00;;;;;;;0.9;0.9;;;;;;;11.1;100.0;101950;;;;
2023/02/18 00:53:00;;;;;;;0.9;0.9;;;;;;;11.2;100.0;101950;;;;
2023/02/18 00:54:00;;;;;;;0.9;0.9;;;;;;;11.2;100.0;101950;;;;
2023/02/18 00:55:00;;;;;;;0.9;0.9;;;;;;;11.1;100.0;101960;;;;
2023/02/18 00:56:00;;;;;;;1.3;1.3;;;;;;;11.1;100.0;101960;;;;
2023/02/18 00:57:00;;;;;;;1.3;1.3;;;;;;;11.2;100.0;101960;;;;
2023/02/18 00:58:00;;;;;;;1.3;1.3;;;;;;;11.2;100.0;101960;;;;
2023/02/18 00:59:00;;;;;;;1.3;1.3;;;;;;;11.2;100.0;101950;;;;
2023/02/18 01:00:00;;;;;;;1.3;1.3;;;;;;;11.2;100.0;101950;;;;
2023/02/18 01:01:00;;;;;;;1.3;1.3;;;;;;;11.2;100.0;101950;;;;
2023/02/18 01:02:00;;;;;;;1.3;1.3;;;;;;;11.2;100.0;101950;;;;
2023/02/18 01:03:00;;;;;;;1.3;1.3;;;;;;;11.1;100.0;101950;;;;
2023/02/18 01:04:00;;;;;;;1.3;1.3;;;;;;;11.1;100.0;101950;;;;
2023/02/18 01:05:00;;;;;;;1.3;1.3;;;;;;;11.2;100.0;101950;;;;
2023/02/18 01:06:00;;;;;;;1.3;1.3;;;;;;;11.2;100.0;101950;;;;
2023/02/18 01:07:00;;;;;;;1.3;1.3;;;;;;;11.1;100.0;101950;;;;
2023/02/18 01:08:00;;;;;;;1.3;1.3;;;;;;;11.1;100.0;101950;;;;
2023/02/18 01:09:00;;;;;;;1.3;1.3;;;;;;;11.2;100.0;101940;;;;
2023/02/18 01:10:00;;;;;;;1.3;1.3;;;;;;;11.2;100.0;101940;;;;
2023/02/18 01:11:00;;;;;;;1.3;1.3;;;;;;;11.2;100.0;101940;;;;
2023/02/18 01:12:00;;;;;;;1.3;1.3;;;;;;;11.2;100.0;101940;;;;
2023/02/18 01:13:03;;;;;;;1.3;1.3;;;;;;;11.2;100.0;101940;;;;
2023/02/18 01:14:00;;;;;;;1.3;1.3;;;;;;;11.2;100.0;101940;;;;
2023/02/18 01:15:00;;;;;;;1.3;1.3;;;;;;;11.2;100.0;101940;;;;
2023/02/18 01:16:00;;;;;;;0.8;0.8;;;;;;;11.2;100.0;101940;;;;
2023/02/18 01:17:00;;;;;;;0.8;0.8;;;;;;;11.2;100.0;101930;;;;
2023/02/18 01:18:00;;;;;;;0.8;0.8;;;;;;;11.2;100.0;101930;;;;
2023/02/18 01:19:00;;;;;;;0.8;0.8;;;;;;;11.3;100.0;101930;;;;
2023/02/18 01:20:00;;;;;;;0.8;0.8;;;;;;;11.3;100.0;101930;;;;
2023/02/18 01:21:00;;;;;;;0.8;0.8;;;;;;;11.3;100.0;101930;;;;
2023/02/18 01:22:00;;;;;;;0.8;0.8;;;;;;;11.3;100.0;101930;;;;
2023/02/18 01:23:00;;;;;;;0.8;0.8;;;;;;;11.2;100.0;101930;;;;
2023/02/18 01:24:00;;;;;;;0.8;0.8;;;;;;;11.2;100.0;101930;;;;
2023/02/18 01:25:00;;;;;;;0.8;0.8;;;;;;;11.2;100.0;101930;;;;
2023/02/18 01:26:00;;;;;;;0.8;0.8;;;;;;;11.2;100.0;101930;;;;
2023/02/18 01:27:00;;;;;;;0.8;0.8;;;;;;;11.1;100.0;101930;;;;
2023/02/18 01:28:00;;;;;;;0.8;0.8;;;;;;;11.1;100.0;101930;;;;
2023/02/18 01:29:00;;;;;;;0.8;0.8;;;;;;;11.1;100.0;101930;;;;
2023/02/18 01:30:00;;;;;;;0.8;0.8;;;;;;;11.1;100.0;101930;;;;
2023/02/18 01:31:05;;;;;;;0.8;0.8;;;;;;;11.2;100.0;101920;;;;
2023/02/18 01:32:00;;;;;;;0.8;0.8;;;;;;;11.2;100.0;101920;;;;
2023/02/18 01:33:00;;;;;;;0.8;0.8;;;;;;;11.2;100.0;101930;;;;
2023/02/18 01:34:00;;;;;;;0.8;0.8;;;;;;;11.2;100.0;101930;;;;
2023/02/18 01:35:01;;;;;;;0.9;0.9;;;;;;;11.2;100.0;101930;;;;
2023/02/18 01:36:00;;;;;;;0.9;0.9;;;;;;;11.2;100.0;101930;;;;
2023/02/18 01:37:00;;;;;;;0.9;0.9;;;;;;;11.2;100.0;101930;;;;
2023/02/18 01:38:01;;;;;;;0.9;0.9;;;;;;;11.2;100.0;101930;;;;
2023/02/18 01:39:00;;;;;;;0.9;0.9;;;;;;;11.2;100.0;101920;;;;
2023/02/18 01:40:00;;;;;;;0.9;0.9;;;;;;;11.2;100.0;101920;;;;
2023/02/18 01:41:00;;;;;;;0.9;0.9;;;;;;;11.3;100.0;101920;;;;
2023/02/18 01:42:00;;;;;;;0.9;0.9;;;;;;;11.3;100.0;101920;;;;
2023/02/18 01:43:00;;;;;;;0.9;0.9;;;;;;;11.3;100.0;101920;;;;
2023/02/18 01:44:10;;;;;;;0.9;0.9;;;;;;;11.3;100.0;101920;;;;
2023/02/18 01:45:10;;;;;;;0.9;0.9;;;;;;;11.3;100.0;101920;;;;
2023/02/18 01:46:03;;;;;;;0.9;0.9;;;;;;;11.3;100.0;101920;;;;
2023/02/18 01:47:00;;;;;;;0.9;0.9;;;;;;;11.3;100.0;101920;;;;
2023/02/18 01:48:01;;;;;;;0.9;0.9;;;;;;;11.3;100.0;101920;;;;
2023/02/18 01:49:00;;;;;;;0.9;0.9;;;;;;;11.2;100.0;101930;;;;
2023/02/18 01:50:00;;;;;;;0.9;0.9;;;;;;;11.2;100.0;101930;;;;
2023/02/18 01:51:04;;;;;;;0.9;0.9;;;;;;;11.2;100.0;101920;;;;
2023/02/18 01:52:02;;;;;;;0.9;0.9;;;;;;;11.2;100.0;101920;;;;
2023/02/18 01:53:01;;;;;;;0.9;0.9;;;;;;;11.2;100.0;101930;;;;
2023/02/18 01:54:04;;;;;;;0.9;0.9;;;;;;;11.2;100.0;101930;;;;
2023/02/18 01:55:00;;;;;;;1.4;1.4;;;;;;;11.2;100.0;101920;;;;
2023/02/18 01:56:02;;;;;;;1.4;1.4;;;;;;;11.2;100.0;101920;;;;
2023/02/18 01:57:01;;;;;;;1.4;1.4;;;;;;;11.2;100.0;101930;;;;
2023/02/18 01:58:01;;;;;;;1.4;1.4;;;;;;;11.2;100.0;101930;;;;
2023/02/18 01:59:02;;;;;;;1.4;1.4;;;;;;;11.1;100.0;101920;;;;
2023/02/18 02:00:04;;;;;;;1.4;1.4;;;;;;;11.1;100.0;101920;;;;
2023/02/18 02:01:00;;;;;;;1.4;1.4;;;;;;;11.1;100.0;101920;;;;
2023/02/18 02:02:00;;;;;;;1.4;1.4;;;;;;;11.1;100.0;101920;;;;
2023/02/18 02:03:00;;;;;;;1.4;1.4;;;;;;;11.1;100.0;101920;;;;
2023/02/18 02:04:00;;;;;;;1.4;1.4;;;;;;;11.1;100.0;101920;;;;
2023/02/18 02:05:00;;;;;;;1.4;1.4;;;;;;;11.1;100.0;101920;;;;
2023/02/18 02:06:00;;;;;;;1.4;1.4;;;;;;;11.1;100.0;101920;;;;
2023/02/18 02:07:00;;;;;;;1.4;1.4;;;;;;;11.1;100.0;101910;;;;
2023/02/18 02:08:01;;;;;;;1.4;1.4;;;;;;;11.1;100.0;101910;;;;
2023/02/18 02:09:02;;;;;;;1.4;1.4;;;;;;;11.0;100.0;101910;;;;
2023/02/18 02:10:00;;;;;;;1.4;1.4;;;;;;;11.0;100.0;101910;;;;
2023/02/18 02:11:00;;;;;;;1.4;1.4;;;;;;;11.1;100.0;101910;;;;
2023/02/18 02:12:00;;;;;;;1.4;1.4;;;;;;;11.1;100.0;101910;;;;
2023/02/18 02:13:00;;;;;;;1.4;1.4;;;;;;;11.0;100.0;101910;;;;
2023/02/18 02:14:09;;;;;;;1.4;1.4;;;;;;;11.0;100.0;101910;;;;
2023/02/18 02:15:07;;;;;;;1.1;1.1;;;;;;;11.1;100.0;101900;;;;
2023/02/18 02:16:11;;;;;;;1.1;1.1;;;;;;;11.1;100.0;101900;;;;
2023/02/18 02:17:01;;;;;;;1.1;1.1;;;;;;;11.1;100.0;101910;;;;
2023/02/18 02:18:11;;;;;;;1.1;1.1;;;;;;;11.1;100.0;101910;;;;
2023/02/18 02:19:09;;;;;;;1.1;1.1;;;;;;;11.0;100.0;101900;;;;
2023/02/18 02:20:07;;;;;;;1.1;1.1;;;;;;;11.0;100.0;101900;;;;
2023/02/18 02:21:00;;;;;;;1.1;1.1;;;;;;;11.0;100.0;101900;;;;
2023/02/18 02:22:10;;;;;;;1.1;1.1;;;;;;;11.0;100.0;101900;;;;
2023/02/18 02:23:01;;;;;;;1.1;1.1;;;;;;;11.0;100.0;101900;;;;
2023/02/18 02:24:10;;;;;;;1.1;1.1;;;;;;;11.0;100.0;101900;;;;
2023/02/18 02:25:10;;;;;;;1.1;1.1;;;;;;;11.0;100.0;101890;;;;
2023/02/18 02:26:10;;;;;;;1.1;1.1;;;;;;;11.0;100.0;101890;;;;
2023/02/18 02:27:00;;;;;;;1.1;1.1;;;;;;;11.0;100.0;101900;;;;
2023/02/18 02:28:10;;;;;;;1.1;1.1;;;;;;;11.0;100.0;101900;;;;
2023/02/18 02:29:10;;;;;;;1.1;1.1;;;;;;;10.9;100.0;101890;;;;
2023/02/18 02:30:11;;;;;;;1.1;1.1;;;;;;;10.9;100.0;101890;;;;
2023/02/18 02:31:08;;;;;;;1.1;1.1;;;;;;;10.9;100.0;101890;;;;
2023/02/18 02:32:10;;;;;;;1.1;1.1;;;;;;;10.9;100.0;101890;;;;
2023/02/18 02:33:10;;;;;;;1.1;1.1;;;;;;;10.9;100.0;101880;;;;
2023/02/18 02:34:10;;;;;;;1.1;1.1;;;;;;;10.9;100.0;101880;;;;
2023/02/18 02:35:10;;;;;;;0.6;0.6;;;;;;;10.9;100.0;101880;;;;
2023/02/18 02:36:10;;;;;;;0.6;0.6;;;;;;;10.9;100.0;101880;;;;
2023/02/18 02:37:10;;;;;;;0.6;0.6;;;;;;;10.9;100.0;101870;;;;
2023/02/18 02:38:10;;;;;;;0.6;0.6;;;;;;;10.9;100.0;101870;;;;
2023/02/18 02:39:10;;;;;;;0.6;0.6;;;;;;;10.9;100.0;101870;;;;
2023/02/18 02:40:05;;;;;;;0.6;0.6;;;;;;;10.9;100.0;101870;;;;
2023/02/18 02:41:00;;;;;;;0.6;0.6;;;;;;;10.9;100.0;101870;;;;
2023/02/18 02:42:10;;;;;;;0.6;0.6;;;;;;;10.9;100.0;101870;;;;
2023/02/18 02:43:10;;;;;;;0.6;0.6;;;;;;;10.8;100.0;101860;;;;
2023/02/18 02:44:10;;;;;;;0.6;0.6;;;;;;;10.8;100.0;101860;;;;
2023/02/18 02:45:09;;;;;;;0.6;0.6;;;;;;;10.9;100.0;101860;;;;
2023/02/18 02:46:05;;;;;;;0.6;0.6;;;;;;;10.9;100.0;101860;;;;
2023/02/18 02:47:06;;;;;;;0.6;0.6;;;;;;;10.9;100.0;101860;;;;
2023/02/18 02:48:10;;;;;;;0.6;0.6;;;;;;;10.9;100.0;101860;;;;
2023/02/18 02:49:07;;;;;;;0.6;0.6;;;;;;;10.8;100.0;101850;;;;
2023/02/18 02:50:06;;;;;;;0.6;0.6;;;;;;;10.8;100.0;101850;;;;
2023/02/18 02:51:05;;;;;;;0.6;0.6;;;;;;;10.7;100.0;101840;;;;
2023/02/18 02:52:05;;;;;;;0.6;0.6;;;;;;;10.7;100.0;101840;;;;
2023/02/18 02:53:04;;;;;;;0.6;0.6;;;;;;;10.8;100.0;101840;;;;
2023/02/18 02:54:10;;;;;;;0.6;0.6;;;;;;;10.8;100.0;101840;;;;
2023/02/18 02:55:02;;;;;;;1.1;1.1;;;;;;;10.9;100.0;101840;;;;
2023/02/18 02:56:00;;;;;;;1.1;1.1;;;;;;;10.9;100.0;101840;;;;
2023/02/18 02:57:06;;;;;;;1.1;1.1;;;;;;;10.8;100.0;101830;;;;
2023/02/18 02:58:00;;;;;;;1.1;1.1;;;;;;;10.8;100.0;101830;;;;
2023/02/18 02:59:01;;;;;;;1.1;1.1;;;;;;;10.8;100.0;101830;;;;
2023/02/18 03:00:02;;;;;;;1.1;1.1;;;;;;;10.8;100.0;101830;;;;
2023/02/18 03:01:10;;;;;;;1.1;1.1;;;;;;;10.8;100.0;101830;;;;
2023/02/18 03:02:10;;;;;;;1.1;1.1;;;;;;;10.8;100.0;101830;;;;
2023/02/18 03:03:06;;;;;;;1.1;1.1;;;;;;;10.8;100.0;101820;;;;
2023/02/18 03:04:10;;;;;;;1.1;1.1;;;;;;;10.8;100.0;101820;;;;
2023/02/18 03:05:10;;;;;;;1.1;1.1;;;;;;;10.8;100.0;101820;;;;
2023/02/18 03:06:10;;;;;;;1.1;1.1;;;;;;;10.8;100.0;101820;;;;
2023/02/18 03:07:11;;;;;;;1.1;1.1;;;;;;;10.8;100.0;101810;;;;
2023/02/18 03:08:03;;;;;;;1.1;1.1;;;;;;;10.8;100.0;101810;;;;
2023/02/18 03:09:01;;;;;;;1.1;1.1;;;;;;;10.8;100.0;101810;;;;
2023/02/18 03:10:10;;;;;;;1.1;1.1;;;;;;;10.8;100.0;101810;;;;
2023/02/18 03:11:00;;;;;;;1.1;1.1;;;;;;;10.7;100.0;101810;;;;
2023/02/18 03:12:06;;;;;;;1.1;1.1;;;;;;;10.7;100.0;101810;;;;
2023/02/18 03:13:03;;;;;;;1.1;1.1;;;;;;;10.9;100.0;101800;;;;
2023/02/18 03:14:09;;;;;;;1.1;1.1;;;;;;;10.9;100.0;101800;;;;
2023/02/18 03:15:10;;;;;;;0.9;0.9;;;;;;;10.9;100.0;101800;;;;
2023/02/18 03:16:09;;;;;;;0.9;0.9;;;;;;;10.9;100.0;101800;;;;
2023/02/18 03:17:03;;;;;;;0.9;0.9;;;;;;;10.9;100.0;101790;;;;
2023/02/18 03:18:04;;;;;;;0.9;0.9;;;;;;;10.9;100.0;101790;;;;
2023/02/18 03:19:10;;;;;;;0.9;0.9;;;;;;;10.9;100.0;101790;;;;
2023/02/18 03:20:06;;;;;;;0.9;0.9;;;;;;;10.9;100.0;101790;;;;
2023/02/18 03:21:03;;;;;;;0.9;0.9;;;;;;;10.9;100.0;101780;;;;
2023/02/18 03:22:10;;;;;;;0.9;0.9;;;;;;;10.9;100.0;101780;;;;
2023/02/18 03:23:02;;;;;;;0.9;0.9;;;;;;;10.8;100.0;101780;;;;
2023/02/18 03:24:02;;;;;;;0.9;0.9;;;;;;;10.8;100.0;101780;;;;
2023/02/18 03:25:01;;;;;;;0.9;0.9;;;;;;;10.8;100.0;101770;;;;
2023/02/18 03:26:03;;;;;;;0.9;0.9;;;;;;;10.8;100.0;101770;;;;
2023/02/18 03:27:05;;;;;;;0.9;0.9;;;;;;;10.8;100.0;101770;;;;
2023/02/18 03:28:04;;;;;;;0.9;0.9;;;;;;;10.8;100.0;101770;;;;
2023/02/18 03:29:01;;;;;;;0.9;0.9;;;;;;;10.9;100.0;101770;;;;
2023/02/18 03:30:06;;;;;;;0.9;0.9;;;;;;;10.9;100.0;101770;;;;
2023/02/18 03:31:06;;;;;;;0.9;0.9;;;;;;;10.8;100.0;101770;;;;
2023/02/18 03:32:02;;;;;;;0.9;0.9;;;;;;;10.8;100.0;101770;;;;
2023/02/18 03:33:03;;;;;;;0.9;0.9;;;;;;;10.8;100.0;101770;;;;
2023/02/18 03:34:03;;;;;;;0.9;0.9;;;;;;;10.8;100.0;101770;;;;
2023/02/18 03:35:02;;;;;;;1.0;1.0;;;;;;;10.8;100.0;101760;;;;
2023/02/18 03:36:00;;;;;;;1.0;1.0;;;;;;;10.8;100.0;101760;;;;
2023/02/18 03:37:00;;;;;;;1.0;1.0;;;;;;;10.8;100.0;101750;;;;
2023/02/18 03:38:05;;;;;;;1.0;1.0;;;;;;;10.8;100.0;101750;;;;
2023/02/18 03:39:03;;;;;;;1.0;1.0;;;;;;;10.8;100.0;101750;;;;
2023/02/18 03:40:01;;;;;;;1.0;1.0;;;;;;;10.8;100.0;101750;;;;
2023/02/18 03:41:00;;;;;;;1.0;1.0;;;;;;;10.8;100.0;101750;;;;
2023/02/18 03:42:00;;;;;;;1.0;1.0;;;;;;;10.8;100.0;101750;;;;
2023/02/18 03:43:00;;;;;;;1.0;1.0;;;;;;;10.7;100.0;101750;;;;
2023/02/18 03:44:02;;;;;;;1.0;1.0;;;;;;;10.7;100.0;101750;;;;
2023/02/18 03:45:00;;;;;;;1.0;1.0;;;;;;;10.7;100.0;101740;;;;
2023/02/18 03:46:01;;;;;;;1.0;1.0;;;;;;;10.7;100.0;101740;;;;
2023/02/18 03:47:00;;;;;;;1.0;1.0;;;;;;;10.6;100.0;101750;;;;
2023/02/18 03:48:00;;;;;;;1.0;1.0;;;;;;;10.6;100.0;101750;;;;
2023/02/18 03:49:00;;;;;;;1.0;1.0;;;;;;;10.7;100.0;101740;;;;
2023/02/18 03:50:00;;;;;;;1.0;1.0;;;;;;;10.7;100.0;101740;;;;
2023/02/18 03:51:00;;;;;;;1.0;1.0;;;;;;;10.7;100.0;101740;;;;
2023/02/18 03:52:00;;;;;;;1.0;1.0;;;;;;;10.7;100.0;101740;;;;
2023/02/18 03:53:00;;;;;;;1.0;1.0;;;;;;;10.7;100.0;101730;;;;
2023/02/18 03:54:00;;;;;;;1.0;1.0;;;;;;;10.7;100.0;101730;;;;
2023/02/18 03:55:00;;;;;;;1.1;1.0;;;;;;;10.7;100.0;101730;;;;
2023/02/18 03:56:00;;;;;;;1.1;1.0;;;;;;;10.7;100.0;101730;;;;
2023/02/18 03:57:00;;;;;;;1.1;1.0;;;;;;;10.7;100.0;101730;;;;
2023/02/18 03:58:00;;;;;;;1.1;1.0;;;;;;;10.7;100.0;101730;;;;
2023/02/18 03:59:00;;;;;;;1.1;1.0;;;;;;;10.7;100.0;101730;;;;
2023/02/18 04:00:00;;;;;;;1.1;1.0;;;;;;;10.7;100.0;101730;;;;
2023/02/18 04:01:00;;;;;;;1.1;1.0;;;;;;;10.6;100.0;101730;;;;
2023/02/18 04:02:01;;;;;;;1.1;1.0;;;;;;;10.6;100.0;101730;;;;
2023/02/18 04:03:00;;;;;;;1.1;1.0;;;;;;;10.6;100.0;101730;;;;
2023/02/18 04:04:01;;;;;;;1.1;1.0;;;;;;;10.6;100.0;101730;;;;
2023/02/18 04:05:00;;;;;;;1.1;1.0;;;;;;;10.6;100.0;101730;;;;
2023/02/18 04:06:00;;;;;;;1.1;1.0;;;;;;;10.6;100.0;101730;;;;
2023/02/18 04:07:00;;;;;;;1.1;1.0;;;;;;;10.6;100.0;101720;;;;
2023/02/18 04:08:00;;;;;;;1.1;1.0;;;;;;;10.6;100.0;101720;;;;
2023/02/18 04:09:01;;;;;;;1.1;1.0;;;;;;;10.6;100.0;101720;;;;
2023/02/18 04:10:00;;;;;;;1.1;1.0;;;;;;;10.6;100.0;101720;;;;
2023/02/18 04:11:00;;;;;;;1.1;1.0;;;;;;;10.5;100.0;101710;;;;
2023/02/18 04:12:00;;;;;;;1.1;1.0;;;;;;;10.5;100.0;101710;;;;
2023/02/18 04:13:00;;;;;;;1.1;1.0;;;;;;;10.6;100.0;101710;;;;
2023/02/18 04:14:00;;;;;;;1.1;1.0;;;;;;;10.6;100.0;101710;;;;
2023/02/18 04:15:00;;;;;;;0.8;0.8;;;;;;;10.6;100.0;101710;;;;
2023/02/18 04:16:00;;;;;;;0.8;0.8;;;;;;;10.6;100.0;101710;;;;
2023/02/18 04:17:00;;;;;;;0.8;0.8;;;;;;;10.6;100.0;101700;;;;
2023/02/18 04:18:00;;;;;;;0.8;0.8;;;;;;;10.6;100.0;101700;;;;
2023/02/18 04:19:00;;;;;;;0.8;0.8;;;;;;;10.6;100.0;101700;;;;
2023/02/18 04:20:00;;;;;;;0.8;0.8;;;;;;;10.6;100.0;101700;;;;
2023/02/18 04:21:00;;;;;;;0.8;0.8;;;;;;;10.5;100.0;101700;;;;
2023/02/18 04:22:00;;;;;;;0.8;0.8;;;;;;;10.5;100.0;101700;;;;
2023/02/18 04:23:00;;;;;;;0.8;0.8;;;;;;;10.5;100.0;101700;;;;
2023/02/18 04:24:00;;;;;;;0.8;0.8;;;;;;;10.5;100.0;101700;;;;
2023/02/18 04:25:00;;;;;;;0.8;0.8;;;;;;;10.5;100.0;101690;;;;
2023/02/18 04:26:00;;;;;;;0.8;0.8;;;;;;;10.5;100.0;101690;;;;
2023/02/18 04:27:00;;;;;;;0.8;0.8;;;;;;;10.4;100.0;101690;;;;
2023/02/18 04:28:00;;;;;;;0.8;0.8;;;;;;;10.4;100.0;101690;;;;
2023/02/18 04:29:00;;;;;;;0.8;0.8;;;;;;;10.5;100.0;101690;;;;
2023/02/18 04:30:00;;;;;;;0.8;0.8;;;;;;;10.5;100.0;101690;;;;
2023/02/18 04:31:00;;;;;;;0.8;0.8;;;;;;;10.6;100.0;101690;;;;
2023/02/18 04:32:00;;;;;;;0.8;0.8;;;;;;;10.6;100.0;101690;;;;
2023/02/18 04:33:00;;;;;;;0.8;0.8;;;;;;;10.5;100.0;101690;;;;
2023/02/18 04:34:00;;;;;;;0.8;0.8;;;;;;;10.5;100.0;101690;;;;
2023/02/18 04:35:00;;;;;;;0.7;0.7;;;;;;;10.5;100.0;101690;;;;
2023/02/18 04:36:00;;;;;;;0.7;0.7;;;;;;;10.5;100.0;101690;;;;
2023/02/18 04:37:00;;;;;;;0.7;0.7;;;;;;;10.5;100.0;101700;;;;
2023/02/18 04:38:00;;;;;;;0.7;0.7;;;;;;;10.5;100.0;101700;;;;
2023/02/18 04:39:00;;;;;;;0.7;0.7;;;;;;;10.4;100.0;101690;;;;
2023/02/18 04:40:00;;;;;;;0.7;0.7;;;;;;;10.4;100.0;101690;;;;
2023/02/18 04:41:00;;;;;;;0.7;0.7;;;;;;;10.4;100.0;101700;;;;
2023/02/18 04:42:00;;;;;;;0.7;0.7;;;;;;;10.4;100.0;101700;;;;
2023/02/18 04:43:01;;;;;;;0.7;0.7;;;;;;;10.4;100.0;101680;;;;
2023/02/18 04:44:00;;;;;;;0.7;0.7;;;;;;;10.4;100.0;101680;;;;
2023/02/18 04:45:00;;;;;;;0.7;0.7;;;;;;;10.4;100.0;101680;;;;
2023/02/18 04:46:00;;;;;;;0.7;0.7;;;;;;;10.4;100.0;101680;;;;
2023/02/18 04:47:00;;;;;;;0.7;0.7;;;;;;;10.4;100.0;101690;;;;
2023/02/18 04:48:00;;;;;;;0.7;0.7;;;;;;;10.4;100.0;101690;;;;
2023/02/18 04:49:00;;;;;;;0.7;0.7;;;;;;;10.4;100.0;101680;;;;
2023/02/18 04:50:00;;;;;;;0.7;0.7;;;;;;;10.4;100.0;101680;;;;
2023/02/18 04:51:00;;;;;;;0.7;0.7;;;;;;;10.3;100.0;101680;;;;
2023/02/18 04:52:00;;;;;;;0.7;0.7;;;;;;;10.3;100.0;101680;;;;
2023/02/18 04:53:00;;;;;;;0.7;0.7;;;;;;;10.3;100.0;101690;;;;
2023/02/18 04:54:00;;;;;;;0.7;0.7;;;;;;;10.3;100.0;101690;;;;
2023/02/18 04:55:00;;;;;;;0.7;0.7;;;;;;;10.4;100.0;101690;;;;
2023/02/18 04:56:00;;;;;;;0.7;0.7;;;;;;;10.4;100.0;101690;;;;
2023/02/18 04:57:00;;;;;;;0.7;0.7;;;;;;;10.4;100.0;101690;;;;
2023/02/18 04:58:00;;;;;;;0.7;0.7;;;;;;;10.4;100.0;101690;;;;
2023/02/18 04:59:00;;;;;;;0.7;0.7;;;;;;;10.4;100.0;101680;;;;
2023/02/18 05:00:00;;;;;;;0.7;0.7;;;;;;;10.4;100.0;101680;;;;
2023/02/18 05:01:01;;;;;;;0.7;0.7;;;;;;;10.4;100.0;101680;;;;
2023/02/18 05:02:00;;;;;;;0.7;0.7;;;;;;;10.4;100.0;101680;;;;
2023/02/18 05:03:00;;;;;;;0.7;0.7;;;;;;;10.4;100.0;101680;;;;
2023/02/18 05:04:00;;;;;;;0.7;0.7;;;;;;;10.4;100.0;101680;;;;
2023/02/18 05:05:00;;;;;;;0.7;0.7;;;;;;;10.5;100.0;101680;;;;
2023/02/18 05:06:00;;;;;;;0.7;0.7;;;;;;;10.5;100.0;101680;;;;
2023/02/18 05:07:00;;;;;;;0.7;0.7;;;;;;;10.5;100.0;101670;;;;
2023/02/18 05:08:00;;;;;;;0.7;0.7;;;;;;;10.5;100.0;101670;;;;
2023/02/18 05:09:00;;;;;;;0.7;0.7;;;;;;;10.4;100.0;101670;;;;
2023/02/18 05:10:00;;;;;;;0.7;0.7;;;;;;;10.4;100.0;101670;;;;
2023/02/18 05:11:03;;;;;;;0.7;0.7;;;;;;;10.4;100.0;101670;;;;
2023/02/18 05:12:00;;;;;;;0.7;0.7;;;;;;;10.4;100.0;101670;;;;
2023/02/18 05:13:00;;;;;;;0.7;0.7;;;;;;;10.3;100.0;101670;;;;
2023/02/18 05:14:00;;;;;;;0.7;0.7;;;;;;;10.3;100.0;101670;;;;
2023/02/18 05:15:00;;;;;;;0.7;0.7;;;;;;;10.4;100.0;101670;;;;
2023/02/18 05:16:00;;;;;;;0.7;0.7;;;;;;;10.4;100.0;101670;;;;
2023/02/18 05:17:00;;;;;;;0.7;0.7;;;;;;;10.4;100.0;101660;;;;
2023/02/18 05:18:00;;;;;;;0.7;0.7;;;;;;;10.4;100.0;101660;;;;
2023/02/18 05:19:00;;;;;;;0.7;0.7;;;;;;;10.4;100.0;101660;;;;
2023/02/18 05:20:01;;;;;;;0.7;0.7;;;;;;;10.4;100.0;101660;;;;
2023/02/18 05:21:00;;;;;;;0.7;0.7;;;;;;;10.4;100.0;101650;;;;
2023/02/18 05:22:00;;;;;;;0.7;0.7;;;;;;;10.4;100.0;101650;;;;
2023/02/18 05:23:00;;;;;;;0.7;0.7;;;;;;;10.4;100.0;101650;;;;
2023/02/18 05:24:00;;;;;;;0.7;0.7;;;;;;;10.4;100.0;101650;;;;
2023/02/18 05:25:00;;;;;;;0.7;0.7;;;;;;;10.4;100.0;101650;;;;
2023/02/18 05:26:00;;;;;;;0.7;0.7;;;;;;;10.4;100.0;101650;;;;
2023/02/18 05:27:00;;;;;;;0.7;0.7;;;;;;;10.4;100.0;101650;;;;
2023/02/18 05:28:00;;;;;;;0.7;0.7;;;;;;;10.4;100.0;101650;;;;
2023/02/18 05:29:00;;;;;;;0.7;0.7;;;;;;;10.3;100.0;101650;;;;
2023/02/18 05:30:00;;;;;;;0.7;0.7;;;;;;;10.3;100.0;101650;;;;
2023/02/18 05:31:00;;;;;;;0.7;0.7;;;;;;;10.2;100.0;101650;;;;
2023/02/18 05:32:00;;;;;;;0.7;0.7;;;;;;;10.2;100.0;101650;;;;
2023/02/18 05:33:00;;;;;;;0.7;0.7;;;;;;;10.3;100.0;101650;;;;
2023/02/18 05:34:00;;;;;;;0.7;0.7;;;;;;;10.3;100.0;101650;;;;
2023/02/18 05:35:00;;;;;;;0.8;0.8;;;;;;;10.3;100.0;101650;;;;
2023/02/18 05:36:00;;;;;;;0.8;0.8;;;;;;;10.3;100.0;101650;;;;
2023/02/18 05:37:00;;;;;;;0.8;0.8;;;;;;;10.3;100.0;101650;;;;
2023/02/18 05:38:00;;;;;;;0.8;0.8;;;;;;;10.3;100.0;101650;;;;
2023/02/18 05:39:00;;;;;;;0.8;0.8;;;;;;;10.3;100.0;101650;;;;
2023/02/18 05:40:00;;;;;;;0.8;0.8;;;;;;;10.3;100.0;101650;;;;
2023/02/18 05:41:01;;;;;;;0.8;0.8;;;;;;;10.2;100.0;101650;;;;
2023/02/18 05:42:00;;;;;;;0.8;0.8;;;;;;;10.2;100.0;101650;;;;
2023/02/18 05:43:00;;;;;;;0.8;0.8;;;;;;;10.2;100.0;101650;;;;
2023/02/18 05:45:00;;;;;;;0.8;0.8;;;;;;;10.3;100.0;101650;;;;
2023/02/18 05:46:00;;;;;;;0.8;0.8;;;;;;;10.3;100.0;101650;;;;
2023/02/18 05:47:03;;;;;;;0.8;0.8;;;;;;;10.2;100.0;101650;;;;
2023/02/18 05:48:00;;;;;;;0.8;0.8;;;;;;;10.2;100.0;101650;;;;
2023/02/18 05:49:00;;;;;;;0.8;0.8;;;;;;;10.3;100.0;101640;;;;
2023/02/18 05:50:00;;;;;;;0.8;0.8;;;;;;;10.3;100.0;101640;;;;
2023/02/18 05:51:00;;;;;;;0.8;0.8;;;;;;;10.2;100.0;101640;;;;
2023/02/18 05:52:01;;;;;;;0.8;0.8;;;;;;;10.2;100.0;101640;;;;
2023/02/18 05:53:00;;;;;;;0.8;0.8;;;;;;;10.3;100.0;101630;;;;
2023/02/18 05:54:00;;;;;;;0.8;0.8;;;;;;;10.3;100.0;101630;;;;
2023/02/18 05:55:00;;;;;;;1.1;1.1;;;;;;;10.3;100.0;101630;;;;
2023/02/18 05:56:00;;;;;;;1.1;1.1;;;;;;;10.3;100.0;101630;;;;
2023/02/18 05:57:00;;;;;;;1.1;1.1;;;;;;;10.3;100.0;101630;;;;
2023/02/18 05:58:00;;;;;;;1.1;1.1;;;;;;;10.3;100.0;101630;;;;
2023/02/18 05:59:00;;;;;;;1.1;1.1;;;;;;;10.2;100.0;101630;;;;
2023/02/18 06:00:00;;;;;;;1.1;1.1;;;;;;;10.2;100.0;101630;;;;
2023/02/18 06:01:00;;;;;;;1.1;1.1;;;;;;;10.2;100.0;101620;;;;
2023/02/18 06:02:00;;;;;;;1.1;1.1;;;;;;;10.2;100.0;101620;;;;
2023/02/18 06:03:00;;;;;;;1.1;1.1;;;;;;;10.3;100.0;101620;;;;
2023/02/18 06:04:00;;;;;;;1.1;1.1;;;;;;;10.3;100.0;101620;;;;
2023/02/18 06:05:00;;;;;;;1.1;1.1;;;;;;;10.3;100.0;101630;;;;
2023/02/18 06:06:01;;;;;;;1.1;1.1;;;;;;;10.3;100.0;101630;;;;
2023/02/18 06:07:00;;;;;;;1.1;1.1;;;;;;;10.2;100.0;101620;;;;
2023/02/18 06:08:00;;;;;;;1.1;1.1;;;;;;;10.2;100.0;101620;;;;
2023/02/18 06:09:00;;;;;;;1.1;1.1;;;;;;;10.2;100.0;101620;;;;
2023/02/18 06:10:00;;;;;;;1.1;1.1;;;;;;;10.2;100.0;101620;;;;
2023/02/18 06:11:00;;;;;;;1.1;1.1;;;;;;;10.2;100.0;101620;;;;
2023/02/18 06:12:00;;;;;;;1.1;1.1;;;;;;;10.2;100.0;101620;;;;
2023/02/18 06:13:01;;;;;;;1.1;1.1;;;;;;;10.1;100.0;101620;;;;
2023/02/18 06:14:00;;;;;;;1.1;1.1;;;;;;;10.1;100.0;101620;;;;
2023/02/18 06:15:00;;;;;;;0.9;0.9;;;;;;;10.2;100.0;101630;;;;
2023/02/18 06:16:00;;;;;;;0.9;0.9;;;;;;;10.2;100.0;101630;;;;
2023/02/18 06:17:00;;;;;;;0.9;0.9;;;;;;;10.2;100.0;101630;;;;
2023/02/18 06:18:00;;;;;;;0.9;0.9;;;;;;;10.2;100.0;101630;;;;
2023/02/18 06:19:00;;;;;;;0.9;0.9;;;;;;;10.2;100.0;101620;;;;
2023/02/18 06:20:00;;;;;;;0.9;0.9;;;;;;;10.2;100.0;101620;;;;
2023/02/18 06:21:00;;;;;;;0.9;0.9;;;;;;;10.3;100.0;101620;;;;
2023/02/18 06:22:00;;;;;;;0.9;0.9;;;;;;;10.3;100.0;101620;;;;
2023/02/18 06:23:00;;;;;;;0.9;0.9;;;;;;;10.2;100.0;101610;;;;